sensor_id;sensor_type;location;lat;lon;timestamp;P1;durP1;ratioP1;P2;durP2;ratioP2
13571;SDS011;6857;53.484;10.216;2023-03-14T00:01:52;3.73;;;2.27;;
13571;SDS011;6857;53.484;10.216;2023-03-14T00:04:18;3.90;;;2.50;;
13571;SDS011;6857;53.484;10.216;2023-03-14T00:06:44;3.50;;;2.13;;
13571;SDS011;6857;53.484;10.216;2023-03-14T00:09:11;6.87;;;2.63;;
13571;SDS011;6857;53.484;10.216;2023-03-14T00:11:37;3.30;;;2.37;;
13571;SDS011;6857;53.484;10.216;2023-03-14T00:14:03;6.97;;;2.77;;
13571;SDS011;6857;53.484;10.216;2023-03-14T00:16:29;5.73;;;3.07;;
13571;SDS011;6857;53.484;10.216;2023-03-14T00:18:55;6.03;;;2.90;;
13571;SDS011;6857;53.484;10.216;2023-03-14T00:21:21;5.67;;;2.53;;
13571;SDS011;6857;53.484;10.216;2023-03-14T00:23:47;5.60;;;2.43;;
13571;SDS011;6857;53.484;10.216;2023-03-14T00:26:14;6.23;;;2.80;;
13571;SDS011;6857;53.484;10.216;2023-03-14T00:28:41;9.20;;;2.97;;
13571;SDS011;6857;53.484;10.216;2023-03-14T00:31:08;4.33;;;2.60;;
13571;SDS011;6857;53.484;10.216;2023-03-14T00:33:34;5.87;;;2.70;;
13571;SDS011;6857;53.484;10.216;2023-03-14T00:36:01;4.90;;;2.77;;
13571;SDS011;6857;53.484;10.216;2023-03-14T00:38:28;6.60;;;2.50;;
13571;SDS011;6857;53.484;10.216;2023-03-14T00:40:54;5.57;;;2.60;;
13571;SDS011;6857;53.484;10.216;2023-03-14T00:43:20;6.37;;;2.90;;
13571;SDS011;6857;53.484;10.216;2023-03-14T00:45:49;4.57;;;2.90;;
13571;SDS011;6857;53.484;10.216;2023-03-14T00:48:16;7.40;;;3.30;;
13571;SDS011;6857;53.484;10.216;2023-03-14T00:50:42;5.13;;;2.70;;
13571;SDS011;6857;53.484;10.216;2023-03-14T00:53:08;5.90;;;2.80;;
13571;SDS011;6857;53.484;10.216;2023-03-14T00:55:38;6.43;;;2.87;;
13571;SDS011;6857;53.484;10.216;2023-03-14T00:58:04;7.13;;;3.00;;
13571;SDS011;6857;53.484;10.216;2023-03-14T01:00:30;4.30;;;2.73;;
13571;SDS011;6857;53.484;10.216;2023-03-14T01:02:56;7.13;;;2.60;;
13571;SDS011;6857;53.484;10.216;2023-03-14T01:05:22;6.27;;;2.90;;
13571;SDS011;6857;53.484;10.216;2023-03-14T01:07:48;4.77;;;2.33;;
13571;SDS011;6857;53.484;10.216;2023-03-14T01:10:14;5.70;;;2.70;;
13571;SDS011;6857;53.484;10.216;2023-03-14T01:12:40;5.50;;;3.27;;
13571;SDS011;6857;53.484;10.216;2023-03-14T01:15:07;5.07;;;2.20;;
13571;SDS011;6857;53.484;10.216;2023-03-14T01:17:33;7.93;;;2.83;;
13571;SDS011;6857;53.484;10.216;2023-03-14T01:19:59;5.87;;;2.40;;
13571;SDS011;6857;53.484;10.216;2023-03-14T01:22:25;3.70;;;2.57;;
13571;SDS011;6857;53.484;10.216;2023-03-14T01:24:51;6.77;;;2.50;;
13571;SDS011;6857;53.484;10.216;2023-03-14T01:27:17;6.87;;;2.90;;
13571;SDS011;6857;53.484;10.216;2023-03-14T01:29:43;5.63;;;2.43;;
13571;SDS011;6857;53.484;10.216;2023-03-14T01:32:09;6.27;;;2.67;;
13571;SDS011;6857;53.484;10.216;2023-03-14T01:34:35;5.47;;;2.80;;
13571;SDS011;6857;53.484;10.216;2023-03-14T01:37:01;5.10;;;2.67;;
13571;SDS011;6857;53.484;10.216;2023-03-14T01:39:27;5.97;;;2.60;;
13571;SDS011;6857;53.484;10.216;2023-03-14T01:41:53;3.57;;;2.50;;
13571;SDS011;6857;53.484;10.216;2023-03-14T01:44:19;6.90;;;3.10;;
13571;SDS011;6857;53.484;10.216;2023-03-14T01:46:45;5.27;;;2.67;;
13571;SDS011;6857;53.484;10.216;2023-03-14T01:49:28;6.80;;;2.80;;
13571;SDS011;6857;53.484;10.216;2023-03-14T01:52:08;4.60;;;2.70;;
13571;SDS011;6857;53.484;10.216;2023-03-14T01:54:37;5.53;;;2.40;;
13571;SDS011;6857;53.484;10.216;2023-03-14T01:57:05;5.07;;;2.77;;
13571;SDS011;6857;53.484;10.216;2023-03-14T01:59:32;9.37;;;3.20;;
13571;SDS011;6857;53.484;10.216;2023-03-14T02:01:58;7.30;;;3.13;;
13571;SDS011;6857;53.484;10.216;2023-03-14T02:04:25;5.03;;;3.03;;
13571;SDS011;6857;53.484;10.216;2023-03-14T02:06:59;6.80;;;2.80;;
13571;SDS011;6857;53.484;10.216;2023-03-14T02:09:26;7.87;;;2.57;;
13571;SDS011;6857;53.484;10.216;2023-03-14T02:11:52;9.27;;;3.00;;
13571;SDS011;6857;53.484;10.216;2023-03-14T02:14:26;5.93;;;2.57;;
13571;SDS011;6857;53.484;10.216;2023-03-14T02:16:53;8.33;;;2.80;;
13571;SDS011;6857;53.484;10.216;2023-03-14T02:19:20;10.13;;;2.70;;
13571;SDS011;6857;53.484;10.216;2023-03-14T02:21:54;7.27;;;2.53;;
13571;SDS011;6857;53.484;10.216;2023-03-14T02:24:27;8.17;;;2.80;;
13571;SDS011;6857;53.484;10.216;2023-03-14T02:27:01;6.67;;;2.57;;
13571;SDS011;6857;53.484;10.216;2023-03-14T02:29:27;10.70;;;3.13;;
13571;SDS011;6857;53.484;10.216;2023-03-14T02:31:53;11.40;;;2.90;;
13571;SDS011;6857;53.484;10.216;2023-03-14T02:34:19;8.27;;;2.33;;
13571;SDS011;6857;53.484;10.216;2023-03-14T02:36:45;11.57;;;2.80;;
13571;SDS011;6857;53.484;10.216;2023-03-14T02:39:16;11.40;;;3.10;;
13571;SDS011;6857;53.484;10.216;2023-03-14T02:41:45;6.23;;;2.37;;
13571;SDS011;6857;53.484;10.216;2023-03-14T02:44:14;8.13;;;2.60;;
13571;SDS011;6857;53.484;10.216;2023-03-14T02:46:40;6.77;;;2.63;;
13571;SDS011;6857;53.484;10.216;2023-03-14T02:49:07;7.50;;;2.83;;
13571;SDS011;6857;53.484;10.216;2023-03-14T02:51:34;7.67;;;2.70;;
13571;SDS011;6857;53.484;10.216;2023-03-14T02:54:00;8.37;;;2.87;;
13571;SDS011;6857;53.484;10.216;2023-03-14T02:56:26;7.47;;;2.77;;
13571;SDS011;6857;53.484;10.216;2023-03-14T02:58:52;9.87;;;2.87;;
13571;SDS011;6857;53.484;10.216;2023-03-14T03:01:18;9.60;;;3.13;;
13571;SDS011;6857;53.484;10.216;2023-03-14T03:03:44;6.63;;;3.10;;
13571;SDS011;6857;53.484;10.216;2023-03-14T03:06:10;5.93;;;2.67;;
13571;SDS011;6857;53.484;10.216;2023-03-14T03:08:36;7.37;;;3.03;;
13571;SDS011;6857;53.484;10.216;2023-03-14T03:11:03;8.37;;;2.80;;
13571;SDS011;6857;53.484;10.216;2023-03-14T03:13:29;5.07;;;2.80;;
13571;SDS011;6857;53.484;10.216;2023-03-14T03:15:55;6.00;;;2.67;;
13571;SDS011;6857;53.484;10.216;2023-03-14T03:18:21;12.17;;;3.07;;
13571;SDS011;6857;53.484;10.216;2023-03-14T03:20:47;4.00;;;2.53;;
13571;SDS011;6857;53.484;10.216;2023-03-14T03:23:13;5.03;;;2.47;;
13571;SDS011;6857;53.484;10.216;2023-03-14T03:25:39;7.57;;;2.63;;
13571;SDS011;6857;53.484;10.216;2023-03-14T03:28:05;4.80;;;2.40;;
13571;SDS011;6857;53.484;10.216;2023-03-14T03:30:33;8.77;;;2.90;;
13571;SDS011;6857;53.484;10.216;2023-03-14T03:32:59;7.57;;;2.60;;
13571;SDS011;6857;53.484;10.216;2023-03-14T03:35:25;7.00;;;2.70;;
13571;SDS011;6857;53.484;10.216;2023-03-14T03:37:51;5.37;;;2.40;;
13571;SDS011;6857;53.484;10.216;2023-03-14T03:40:17;7.43;;;2.47;;
13571;SDS011;6857;53.484;10.216;2023-03-14T03:42:43;5.17;;;2.60;;
13571;SDS011;6857;53.484;10.216;2023-03-14T03:45:09;4.83;;;2.20;;
13571;SDS011;6857;53.484;10.216;2023-03-14T03:47:35;5.43;;;2.53;;
13571;SDS011;6857;53.484;10.216;2023-03-14T03:50:01;7.00;;;2.30;;
13571;SDS011;6857;53.484;10.216;2023-03-14T03:52:27;7.53;;;2.80;;
13571;SDS011;6857;53.484;10.216;2023-03-14T03:54:53;6.43;;;2.63;;
13571;SDS011;6857;53.484;10.216;2023-03-14T03:57:19;9.07;;;2.70;;
13571;SDS011;6857;53.484;10.216;2023-03-14T03:59:45;5.47;;;2.50;;
13571;SDS011;6857;53.484;10.216;2023-03-14T04:02:11;5.40;;;2.53;;
13571;SDS011;6857;53.484;10.216;2023-03-14T04:04:37;6.63;;;2.57;;
13571;SDS011;6857;53.484;10.216;2023-03-14T04:07:03;5.67;;;2.10;;
13571;SDS011;6857;53.484;10.216;2023-03-14T04:09:29;5.97;;;2.50;;
13571;SDS011;6857;53.484;10.216;2023-03-14T04:11:55;7.17;;;2.73;;
13571;SDS011;6857;53.484;10.216;2023-03-14T04:14:21;7.50;;;3.03;;
13571;SDS011;6857;53.484;10.216;2023-03-14T04:16:47;7.30;;;3.03;;
13571;SDS011;6857;53.484;10.216;2023-03-14T04:19:13;5.07;;;2.80;;
13571;SDS011;6857;53.484;10.216;2023-03-14T04:21:40;6.67;;;2.57;;
13571;SDS011;6857;53.484;10.216;2023-03-14T04:24:09;4.30;;;2.50;;
13571;SDS011;6857;53.484;10.216;2023-03-14T04:26:35;5.93;;;2.60;;
13571;SDS011;6857;53.484;10.216;2023-03-14T04:29:01;8.13;;;2.80;;
13571;SDS011;6857;53.484;10.216;2023-03-14T04:31:27;4.60;;;2.93;;
13571;SDS011;6857;53.484;10.216;2023-03-14T04:33:53;11.47;;;3.27;;
13571;SDS011;6857;53.484;10.216;2023-03-14T04:36:19;9.47;;;3.07;;
13571;SDS011;6857;53.484;10.216;2023-03-14T04:38:45;5.90;;;2.70;;
13571;SDS011;6857;53.484;10.216;2023-03-14T04:41:11;8.80;;;3.17;;
13571;SDS011;6857;53.484;10.216;2023-03-14T04:43:37;9.43;;;2.90;;
13571;SDS011;6857;53.484;10.216;2023-03-14T04:46:03;5.67;;;2.93;;
13571;SDS011;6857;53.484;10.216;2023-03-14T04:48:29;8.53;;;2.70;;
13571;SDS011;6857;53.484;10.216;2023-03-14T04:50:55;6.90;;;3.27;;
13571;SDS011;6857;53.484;10.216;2023-03-14T04:53:21;5.77;;;2.60;;
13571;SDS011;6857;53.484;10.216;2023-03-14T04:55:51;5.57;;;2.70;;
13571;SDS011;6857;53.484;10.216;2023-03-14T04:58:17;7.57;;;3.10;;
13571;SDS011;6857;53.484;10.216;2023-03-14T05:00:43;5.87;;;2.50;;
13571;SDS011;6857;53.484;10.216;2023-03-14T05:03:09;6.47;;;2.73;;
13571;SDS011;6857;53.484;10.216;2023-03-14T05:05:35;8.67;;;2.97;;
13571;SDS011;6857;53.484;10.216;2023-03-14T05:08:01;6.53;;;3.13;;
13571;SDS011;6857;53.484;10.216;2023-03-14T05:10:27;6.63;;;2.70;;
13571;SDS011;6857;53.484;10.216;2023-03-14T05:12:53;5.80;;;2.60;;
13571;SDS011;6857;53.484;10.216;2023-03-14T05:15:19;3.93;;;2.23;;
13571;SDS011;6857;53.484;10.216;2023-03-14T05:17:45;3.60;;;1.80;;
13571;SDS011;6857;53.484;10.216;2023-03-14T05:20:11;4.70;;;2.10;;
13571;SDS011;6857;53.484;10.216;2023-03-14T05:22:38;6.13;;;2.03;;
13571;SDS011;6857;53.484;10.216;2023-03-14T05:25:04;6.07;;;2.40;;
13571;SDS011;6857;53.484;10.216;2023-03-14T05:27:31;5.33;;;2.80;;
13571;SDS011;6857;53.484;10.216;2023-03-14T05:29:56;7.87;;;2.70;;
13571;SDS011;6857;53.484;10.216;2023-03-14T05:32:22;5.23;;;2.60;;
13571;SDS011;6857;53.484;10.216;2023-03-14T05:34:48;5.07;;;2.63;;
13571;SDS011;6857;53.484;10.216;2023-03-14T05:37:14;5.67;;;2.50;;
13571;SDS011;6857;53.484;10.216;2023-03-14T05:39:40;6.00;;;2.70;;
13571;SDS011;6857;53.484;10.216;2023-03-14T05:42:06;5.47;;;2.50;;
13571;SDS011;6857;53.484;10.216;2023-03-14T05:44:32;5.97;;;2.80;;
13571;SDS011;6857;53.484;10.216;2023-03-14T05:46:58;4.93;;;2.70;;
13571;SDS011;6857;53.484;10.216;2023-03-14T05:49:24;4.90;;;2.73;;
13571;SDS011;6857;53.484;10.216;2023-03-14T05:51:50;6.20;;;3.03;;
13571;SDS011;6857;53.484;10.216;2023-03-14T05:54:16;6.10;;;2.40;;
13571;SDS011;6857;53.484;10.216;2023-03-14T05:56:43;4.90;;;2.47;;
13571;SDS011;6857;53.484;10.216;2023-03-14T05:59:09;5.10;;;2.50;;
13571;SDS011;6857;53.484;10.216;2023-03-14T06:01:35;5.77;;;2.50;;
13571;SDS011;6857;53.484;10.216;2023-03-14T06:04:01;4.77;;;2.53;;
13571;SDS011;6857;53.484;10.216;2023-03-14T06:06:27;6.57;;;2.50;;
13571;SDS011;6857;53.484;10.216;2023-03-14T06:08:53;7.10;;;2.40;;
13571;SDS011;6857;53.484;10.216;2023-03-14T06:11:19;4.00;;;2.30;;
13571;SDS011;6857;53.484;10.216;2023-03-14T06:13:45;5.07;;;2.10;;
13571;SDS011;6857;53.484;10.216;2023-03-14T06:16:11;5.87;;;2.43;;
13571;SDS011;6857;53.484;10.216;2023-03-14T06:18:37;4.93;;;2.57;;
13571;SDS011;6857;53.484;10.216;2023-03-14T06:21:03;5.00;;;2.60;;
13571;SDS011;6857;53.484;10.216;2023-03-14T06:23:29;6.43;;;2.20;;
13571;SDS011;6857;53.484;10.216;2023-03-14T06:25:56;3.63;;;2.40;;
13571;SDS011;6857;53.484;10.216;2023-03-14T06:28:22;3.90;;;2.57;;
13571;SDS011;6857;53.484;10.216;2023-03-14T06:30:48;4.77;;;2.00;;
13571;SDS011;6857;53.484;10.216;2023-03-14T06:33:14;6.67;;;2.60;;
13571;SDS011;6857;53.484;10.216;2023-03-14T06:35:40;5.60;;;2.23;;
13571;SDS011;6857;53.484;10.216;2023-03-14T06:38:06;4.83;;;2.07;;
13571;SDS011;6857;53.484;10.216;2023-03-14T06:40:32;5.80;;;2.43;;
13571;SDS011;6857;53.484;10.216;2023-03-14T06:42:58;3.70;;;2.30;;
13571;SDS011;6857;53.484;10.216;2023-03-14T06:45:24;7.43;;;2.40;;
13571;SDS011;6857;53.484;10.216;2023-03-14T06:47:50;4.80;;;2.20;;
13571;SDS011;6857;53.484;10.216;2023-03-14T06:50:16;7.73;;;2.50;;
13571;SDS011;6857;53.484;10.216;2023-03-14T06:52:42;6.13;;;2.50;;
13571;SDS011;6857;53.484;10.216;2023-03-14T06:55:12;5.60;;;2.40;;
13571;SDS011;6857;53.484;10.216;2023-03-14T06:57:38;5.30;;;2.00;;
13571;SDS011;6857;53.484;10.216;2023-03-14T07:00:04;5.37;;;2.43;;
13571;SDS011;6857;53.484;10.216;2023-03-14T07:02:31;4.80;;;1.97;;
13571;SDS011;6857;53.484;10.216;2023-03-14T07:04:56;5.57;;;2.10;;
13571;SDS011;6857;53.484;10.216;2023-03-14T07:07:22;5.27;;;2.13;;
13571;SDS011;6857;53.484;10.216;2023-03-14T07:09:48;4.40;;;1.90;;
13571;SDS011;6857;53.484;10.216;2023-03-14T07:12:14;2.67;;;1.70;;
13571;SDS011;6857;53.484;10.216;2023-03-14T07:14:40;7.87;;;1.90;;
13571;SDS011;6857;53.484;10.216;2023-03-14T07:17:06;5.80;;;1.97;;
13571;SDS011;6857;53.484;10.216;2023-03-14T07:19:32;4.77;;;1.90;;
13571;SDS011;6857;53.484;10.216;2023-03-14T07:21:58;4.77;;;1.93;;
13571;SDS011;6857;53.484;10.216;2023-03-14T07:24:24;5.63;;;2.17;;
13571;SDS011;6857;53.484;10.216;2023-03-14T07:26:50;3.43;;;2.00;;
13571;SDS011;6857;53.484;10.216;2023-03-14T07:29:16;7.60;;;2.50;;
13571;SDS011;6857;53.484;10.216;2023-03-14T07:31:42;5.00;;;1.70;;
13571;SDS011;6857;53.484;10.216;2023-03-14T07:34:08;3.50;;;1.53;;
13571;SDS011;6857;53.484;10.216;2023-03-14T07:36:34;2.40;;;1.40;;
13571;SDS011;6857;53.484;10.216;2023-03-14T07:39:00;3.53;;;1.53;;
13571;SDS011;6857;53.484;10.216;2023-03-14T07:41:26;2.57;;;1.10;;
13571;SDS011;6857;53.484;10.216;2023-03-14T07:43:52;3.20;;;1.50;;
13571;SDS011;6857;53.484;10.216;2023-03-14T07:46:18;1.87;;;1.17;;
13571;SDS011;6857;53.484;10.216;2023-03-14T07:48:44;4.13;;;1.30;;
13571;SDS011;6857;53.484;10.216;2023-03-14T07:51:10;3.27;;;1.20;;
13571;SDS011;6857;53.484;10.216;2023-03-14T07:53:36;2.97;;;1.10;;
13571;SDS011;6857;53.484;10.216;2023-03-14T07:56:03;4.40;;;1.37;;
13571;SDS011;6857;53.484;10.216;2023-03-14T07:58:29;4.13;;;1.33;;
13571;SDS011;6857;53.484;10.216;2023-03-14T08:00:55;3.43;;;1.60;;
13571;SDS011;6857;53.484;10.216;2023-03-14T08:03:21;5.10;;;1.73;;
13571;SDS011;6857;53.484;10.216;2023-03-14T08:05:47;2.13;;;1.60;;
13571;SDS011;6857;53.484;10.216;2023-03-14T08:08:14;5.90;;;1.93;;
13571;SDS011;6857;53.484;10.216;2023-03-14T08:10:40;3.47;;;2.00;;
13571;SDS011;6857;53.484;10.216;2023-03-14T08:13:06;4.77;;;2.30;;
13571;SDS011;6857;53.484;10.216;2023-03-14T08:15:32;4.63;;;1.93;;
13571;SDS011;6857;53.484;10.216;2023-03-14T08:17:58;7.00;;;2.40;;
13571;SDS011;6857;53.484;10.216;2023-03-14T08:20:25;8.97;;;2.80;;
13571;SDS011;6857;53.484;10.216;2023-03-14T08:22:51;6.00;;;2.60;;
13571;SDS011;6857;53.484;10.216;2023-03-14T08:25:17;6.93;;;2.27;;
13571;SDS011;6857;53.484;10.216;2023-03-14T08:27:43;4.57;;;2.47;;
13571;SDS011;6857;53.484;10.216;2023-03-14T08:30:10;5.33;;;2.60;;
13571;SDS011;6857;53.484;10.216;2023-03-14T08:32:37;7.60;;;3.27;;
13571;SDS011;6857;53.484;10.216;2023-03-14T08:35:03;4.50;;;2.83;;
13571;SDS011;6857;53.484;10.216;2023-03-14T08:37:33;5.73;;;3.10;;
13571;SDS011;6857;53.484;10.216;2023-03-14T08:40:00;5.50;;;3.43;;
13571;SDS011;6857;53.484;10.216;2023-03-14T08:42:26;8.50;;;3.80;;
13571;SDS011;6857;53.484;10.216;2023-03-14T08:44:52;8.10;;;3.60;;
13571;SDS011;6857;53.484;10.216;2023-03-14T08:47:18;8.00;;;4.30;;
13571;SDS011;6857;53.484;10.216;2023-03-14T08:49:44;8.03;;;4.13;;
13571;SDS011;6857;53.484;10.216;2023-03-14T08:52:10;11.77;;;4.63;;
13571;SDS011;6857;53.484;10.216;2023-03-14T08:54:36;7.40;;;4.20;;
13571;SDS011;6857;53.484;10.216;2023-03-14T08:57:02;9.77;;;4.23;;
13571;SDS011;6857;53.484;10.216;2023-03-14T08:59:28;8.00;;;3.67;;
13571;SDS011;6857;53.484;10.216;2023-03-14T09:01:54;6.43;;;3.80;;
13571;SDS011;6857;53.484;10.216;2023-03-14T09:04:20;10.03;;;3.97;;
13571;SDS011;6857;53.484;10.216;2023-03-14T09:06:46;8.03;;;3.70;;
13571;SDS011;6857;53.484;10.216;2023-03-14T09:09:12;7.57;;;3.93;;
13571;SDS011;6857;53.484;10.216;2023-03-14T09:11:39;6.87;;;3.70;;
13571;SDS011;6857;53.484;10.216;2023-03-14T09:14:05;9.87;;;4.00;;
13571;SDS011;6857;53.484;10.216;2023-03-14T09:16:31;6.50;;;3.60;;
13571;SDS011;6857;53.484;10.216;2023-03-14T09:18:58;10.57;;;3.63;;
13571;SDS011;6857;53.484;10.216;2023-03-14T09:21:24;6.87;;;3.30;;
13571;SDS011;6857;53.484;10.216;2023-03-14T09:23:50;10.93;;;3.80;;
13571;SDS011;6857;53.484;10.216;2023-03-14T09:26:16;4.87;;;3.43;;
13571;SDS011;6857;53.484;10.216;2023-03-14T09:28:42;7.63;;;3.30;;
13571;SDS011;6857;53.484;10.216;2023-03-14T09:31:09;7.37;;;3.67;;
13571;SDS011;6857;53.484;10.216;2023-03-14T09:33:36;5.27;;;2.97;;
13571;SDS011;6857;53.484;10.216;2023-03-14T09:36:02;8.53;;;3.20;;
13571;SDS011;6857;53.484;10.216;2023-03-14T09:38:28;8.30;;;4.07;;
13571;SDS011;6857;53.484;10.216;2023-03-14T09:40:54;6.03;;;2.70;;
13571;SDS011;6857;53.484;10.216;2023-03-14T09:43:21;6.60;;;2.90;;
13571;SDS011;6857;53.484;10.216;2023-03-14T09:45:48;6.37;;;3.17;;
13571;SDS011;6857;53.484;10.216;2023-03-14T09:48:15;4.10;;;2.37;;
13571;SDS011;6857;53.484;10.216;2023-03-14T09:50:43;5.77;;;2.80;;
13571;SDS011;6857;53.484;10.216;2023-03-14T09:53:12;7.87;;;3.43;;
13571;SDS011;6857;53.484;10.216;2023-03-14T09:55:38;7.70;;;3.27;;
13571;SDS011;6857;53.484;10.216;2023-03-14T09:58:08;7.77;;;2.57;;
13571;SDS011;6857;53.484;10.216;2023-03-14T10:00:35;10.80;;;3.17;;
13571;SDS011;6857;53.484;10.216;2023-03-14T10:03:13;9.60;;;2.80;;
13571;SDS011;6857;53.484;10.216;2023-03-14T10:05:46;6.93;;;2.60;;
13571;SDS011;6857;53.484;10.216;2023-03-14T10:08:13;9.60;;;2.73;;
13571;SDS011;6857;53.484;10.216;2023-03-14T10:10:39;5.13;;;2.53;;
13571;SDS011;6857;53.484;10.216;2023-03-14T10:15:41;6.07;;;3.33;;
13571;SDS011;6857;53.484;10.216;2023-03-14T10:18:11;4.60;;;1.90;;
13571;SDS011;6857;53.484;10.216;2023-03-14T10:20:38;3.87;;;2.00;;
13571;SDS011;6857;53.484;10.216;2023-03-14T10:25:40;2.13;;;0.93;;
13571;SDS011;6857;53.484;10.216;2023-03-14T10:28:26;2.80;;;0.80;;
13571;SDS011;6857;53.484;10.216;2023-03-14T10:30:53;2.13;;;1.30;;
13571;SDS011;6857;53.484;10.216;2023-03-14T10:35:52;0.80;;;0.70;;
13571;SDS011;6857;53.484;10.216;2023-03-14T10:38:19;2.10;;;0.93;;
13571;SDS011;6857;53.484;10.216;2023-03-14T10:40:49;3.03;;;0.90;;
13571;SDS011;6857;53.484;10.216;2023-03-14T10:43:18;2.10;;;1.20;;
13571;SDS011;6857;53.484;10.216;2023-03-14T10:45:50;1.63;;;0.90;;
13571;SDS011;6857;53.484;10.216;2023-03-14T10:48:18;3.57;;;1.10;;
13571;SDS011;6857;53.484;10.216;2023-03-14T10:50:55;8.40;;;1.87;;
13571;SDS011;6857;53.484;10.216;2023-03-14T10:53:22;3.13;;;1.50;;
13571;SDS011;6857;53.484;10.216;2023-03-14T10:55:48;3.07;;;1.50;;
13571;SDS011;6857;53.484;10.216;2023-03-14T10:58:18;2.90;;;1.20;;
13571;SDS011;6857;53.484;10.216;2023-03-14T11:01:08;1.10;;;0.70;;
13571;SDS011;6857;53.484;10.216;2023-03-14T11:03:37;3.60;;;0.93;;
13571;SDS011;6857;53.484;10.216;2023-03-14T11:11:21;1.13;;;0.70;;
13571;SDS011;6857;53.484;10.216;2023-03-14T11:13:52;1.30;;;0.80;;
13571;SDS011;6857;53.484;10.216;2023-03-14T11:16:24;1.40;;;0.70;;
13571;SDS011;6857;53.484;10.216;2023-03-14T11:19:14;1.20;;;0.50;;
13571;SDS011;6857;53.484;10.216;2023-03-14T11:24:36;1.50;;;0.80;;
13571;SDS011;6857;53.484;10.216;2023-03-14T11:29:54;2.00;;;0.83;;
13571;SDS011;6857;53.484;10.216;2023-03-14T11:32:28;1.73;;;0.80;;
13571;SDS011;6857;53.484;10.216;2023-03-14T11:34:58;1.37;;;0.73;;
13571;SDS011;6857;53.484;10.216;2023-03-14T11:37:26;1.60;;;0.53;;
13571;SDS011;6857;53.484;10.216;2023-03-14T11:39:57;1.83;;;0.80;;
13571;SDS011;6857;53.484;10.216;2023-03-14T11:42:26;1.43;;;0.60;;
13571;SDS011;6857;53.484;10.216;2023-03-14T11:44:52;2.27;;;0.60;;
13571;SDS011;6857;53.484;10.216;2023-03-14T11:47:21;1.00;;;0.50;;
13571;SDS011;6857;53.484;10.216;2023-03-14T11:49:50;2.67;;;0.80;;
13571;SDS011;6857;53.484;10.216;2023-03-14T11:52:22;0.57;;;0.53;;
13571;SDS011;6857;53.484;10.216;2023-03-14T11:54:53;1.07;;;0.57;;
13571;SDS011;6857;53.484;10.216;2023-03-14T11:57:22;1.50;;;0.93;;
13571;SDS011;6857;53.484;10.216;2023-03-14T11:59:50;3.63;;;1.30;;
13571;SDS011;6857;53.484;10.216;2023-03-14T12:04:48;5.53;;;1.20;;
13571;SDS011;6857;53.484;10.216;2023-03-14T12:07:23;4.80;;;1.50;;
13571;SDS011;6857;53.484;10.216;2023-03-14T12:09:51;4.73;;;0.80;;
13571;SDS011;6857;53.484;10.216;2023-03-14T12:12:19;5.50;;;1.00;;
13571;SDS011;6857;53.484;10.216;2023-03-14T12:14:55;5.57;;;1.20;;
13571;SDS011;6857;53.484;10.216;2023-03-14T12:17:23;5.87;;;1.70;;
13571;SDS011;6857;53.484;10.216;2023-03-14T12:22:32;4.63;;;1.13;;
13571;SDS011;6857;53.484;10.216;2023-03-14T12:27:48;4.77;;;1.20;;
13571;SDS011;6857;53.484;10.216;2023-03-14T12:30:21;6.40;;;1.37;;
13571;SDS011;6857;53.484;10.216;2023-03-14T12:35:38;4.50;;;0.97;;
13571;SDS011;6857;53.484;10.216;2023-03-14T12:38:06;7.90;;;0.97;;
13571;SDS011;6857;53.484;10.216;2023-03-14T12:40:37;7.63;;;1.50;;
13571;SDS011;6857;53.484;10.216;2023-03-14T12:43:05;5.63;;;1.50;;
13571;SDS011;6857;53.484;10.216;2023-03-14T12:48:34;3.70;;;1.03;;
13571;SDS011;6857;53.484;10.216;2023-03-14T12:51:01;9.23;;;1.50;;
13571;SDS011;6857;53.484;10.216;2023-03-14T12:53:46;6.50;;;1.80;;
13571;SDS011;6857;53.484;10.216;2023-03-14T12:58:44;5.00;;;1.20;;
13571;SDS011;6857;53.484;10.216;2023-03-14T13:01:15;7.60;;;2.30;;
13571;SDS011;6857;53.484;10.216;2023-03-14T13:03:45;5.77;;;1.40;;
13571;SDS011;6857;53.484;10.216;2023-03-14T13:06:13;5.00;;;1.70;;
13571;SDS011;6857;53.484;10.216;2023-03-14T13:08:40;5.90;;;1.60;;
13571;SDS011;6857;53.484;10.216;2023-03-14T13:11:14;10.90;;;1.97;;
13571;SDS011;6857;53.484;10.216;2023-03-14T13:13:42;8.37;;;3.33;;
13571;SDS011;6857;53.484;10.216;2023-03-14T13:16:09;8.17;;;2.10;;
13571;SDS011;6857;53.484;10.216;2023-03-14T13:18:39;10.10;;;1.83;;
13571;SDS011;6857;53.484;10.216;2023-03-14T13:23:41;5.83;;;1.40;;
13571;SDS011;6857;53.484;10.216;2023-03-14T13:26:19;5.63;;;1.40;;
13571;SDS011;6857;53.484;10.216;2023-03-14T13:28:45;4.87;;;1.50;;
13571;SDS011;6857;53.484;10.216;2023-03-14T13:31:22;8.77;;;1.70;;
13571;SDS011;6857;53.484;10.216;2023-03-14T13:34:02;7.80;;;1.90;;
13571;SDS011;6857;53.484;10.216;2023-03-14T13:36:30;10.07;;;1.63;;
13571;SDS011;6857;53.484;10.216;2023-03-14T13:38:57;9.50;;;2.10;;
13571;SDS011;6857;53.484;10.216;2023-03-14T13:41:24;9.67;;;2.57;;
13571;SDS011;6857;53.484;10.216;2023-03-14T13:43:50;14.40;;;2.33;;
13571;SDS011;6857;53.484;10.216;2023-03-14T13:46:20;9.90;;;2.20;;
13571;SDS011;6857;53.484;10.216;2023-03-14T13:48:51;8.30;;;2.33;;
13571;SDS011;6857;53.484;10.216;2023-03-14T13:51:18;11.50;;;1.67;;
13571;SDS011;6857;53.484;10.216;2023-03-14T13:53:49;7.77;;;1.70;;
13571;SDS011;6857;53.484;10.216;2023-03-14T13:56:17;9.07;;;1.70;;
13571;SDS011;6857;53.484;10.216;2023-03-14T13:58:43;7.87;;;1.17;;
13571;SDS011;6857;53.484;10.216;2023-03-14T14:01:16;7.40;;;1.23;;
13571;SDS011;6857;53.484;10.216;2023-03-14T14:03:44;5.50;;;1.20;;
13571;SDS011;6857;53.484;10.216;2023-03-14T14:06:16;6.63;;;1.60;;
13571;SDS011;6857;53.484;10.216;2023-03-14T14:08:45;6.77;;;1.23;;
13571;SDS011;6857;53.484;10.216;2023-03-14T14:11:14;6.87;;;2.03;;
13571;SDS011;6857;53.484;10.216;2023-03-14T14:13:46;7.90;;;1.60;;
13571;SDS011;6857;53.484;10.216;2023-03-14T14:16:12;5.43;;;1.20;;
13571;SDS011;6857;53.484;10.216;2023-03-14T14:18:39;7.73;;;1.50;;
13571;SDS011;6857;53.484;10.216;2023-03-14T14:21:06;7.93;;;1.57;;
13571;SDS011;6857;53.484;10.216;2023-03-14T14:23:33;6.87;;;1.67;;
13571;SDS011;6857;53.484;10.216;2023-03-14T14:26:01;9.47;;;1.90;;
13571;SDS011;6857;53.484;10.216;2023-03-14T14:28:34;7.57;;;1.80;;
13571;SDS011;6857;53.484;10.216;2023-03-14T14:33:42;7.27;;;1.50;;
13571;SDS011;6857;53.484;10.216;2023-03-14T14:36:14;7.03;;;1.50;;
13571;SDS011;6857;53.484;10.216;2023-03-14T14:38:40;9.13;;;1.83;;
13571;SDS011;6857;53.484;10.216;2023-03-14T14:41:10;8.57;;;1.40;;
13571;SDS011;6857;53.484;10.216;2023-03-14T14:43:38;11.67;;;1.50;;
13571;SDS011;6857;53.484;10.216;2023-03-14T14:46:06;6.77;;;1.50;;
13571;SDS011;6857;53.484;10.216;2023-03-14T14:48:35;8.57;;;1.60;;
13571;SDS011;6857;53.484;10.216;2023-03-14T14:51:02;6.77;;;1.70;;
13571;SDS011;6857;53.484;10.216;2023-03-14T14:53:36;13.23;;;2.03;;
13571;SDS011;6857;53.484;10.216;2023-03-14T14:56:48;4.50;;;1.53;;
13571;SDS011;6857;53.484;10.216;2023-03-14T14:58:49;7.77;;;1.50;;
13571;SDS011;6857;53.484;10.216;2023-03-14T15:01:19;7.83;;;1.43;;
13571;SDS011;6857;53.484;10.216;2023-03-14T15:03:50;4.67;;;1.20;;
13571;SDS011;6857;53.484;10.216;2023-03-14T15:06:17;5.17;;;1.23;;
13571;SDS011;6857;53.484;10.216;2023-03-14T15:08:44;6.33;;;1.60;;
13571;SDS011;6857;53.484;10.216;2023-03-14T15:11:17;4.53;;;1.00;;
13571;SDS011;6857;53.484;10.216;2023-03-14T15:13:44;6.63;;;1.40;;
13571;SDS011;6857;53.484;10.216;2023-03-14T15:16:10;6.03;;;1.43;;
13571;SDS011;6857;53.484;10.216;2023-03-14T15:18:36;6.50;;;1.63;;
13571;SDS011;6857;53.484;10.216;2023-03-14T15:21:03;5.13;;;1.07;;
13571;SDS011;6857;53.484;10.216;2023-03-14T15:23:29;7.03;;;1.70;;
13571;SDS011;6857;53.484;10.216;2023-03-14T15:25:54;8.97;;;1.50;;
13571;SDS011;6857;53.484;10.216;2023-03-14T15:28:22;6.20;;;1.10;;
13571;SDS011;6857;53.484;10.216;2023-03-14T15:30:55;5.73;;;1.20;;